createdAt,value
2018-07-30T00:00:44.358Z,6.77
2018-07-30T00:03:13.667Z,7.20
2018-07-30T00:05:43.621Z,7.07
2018-07-30T00:08:14.037Z,6.93
2018-07-30T00:10:43.299Z,7.47
2018-07-30T00:13:13.237Z,7.67
2018-07-30T00:15:42.453Z,7.20
2018-07-30T00:18:11.674Z,7.10
2018-07-30T00:20:40.950Z,7.83
2018-07-30T00:23:10.246Z,7.63
2018-07-30T00:25:39.440Z,7.90
2018-07-30T00:28:10.030Z,8.33
2018-07-30T00:30:40.066Z,7.63
2018-07-30T00:33:10.009Z,7.43
2018-07-30T00:35:40.280Z,7.57
2018-07-30T00:38:09.795Z,8.07
2018-07-30T00:40:39.202Z,8.03
2018-07-30T00:43:09.032Z,7.93
2018-07-30T00:45:38.341Z,8.17
2018-07-30T00:48:07.599Z,8.20
2018-07-30T00:50:36.747Z,8.47
2018-07-30T00:53:06.968Z,7.87
2018-07-30T00:55:36.172Z,7.50
2018-07-30T00:58:06.409Z,7.73
2018-07-30T01:00:36.497Z,7.63
2018-07-30T01:03:05.862Z,8.13
2018-07-30T01:05:35.100Z,7.70
2018-07-30T01:08:04.367Z,7.23
2018-07-30T01:10:33.835Z,8.73
2018-07-30T01:13:03.223Z,7.40
2018-07-30T01:15:32.486Z,7.53
2018-07-30T01:18:02.244Z,7.53
2018-07-30T01:20:31.491Z,7.77
2018-07-30T01:23:01.048Z,7.73
2018-07-30T01:25:30.245Z,7.47
2018-07-30T01:27:59.518Z,6.97
2018-07-30T01:30:28.896Z,7.87
2018-07-30T01:32:58.177Z,7.43
2018-07-30T01:35:27.438Z,7.87
2018-07-30T01:37:58.233Z,8.20
2018-07-30T01:40:27.440Z,7.97
2018-07-30T01:42:56.653Z,8.90
2018-07-30T01:45:25.997Z,7.70
2018-07-30T01:47:55.258Z,7.90
2018-07-30T01:50:24.593Z,8.20
2018-07-30T01:52:55.608Z,8.07
2018-07-30T01:55:25.088Z,7.90
2018-07-30T01:57:54.239Z,8.07
2018-07-30T02:00:23.688Z,8.10
2018-07-30T02:02:52.994Z,8.57
2018-07-30T02:05:22.307Z,7.83
2018-07-30T02:07:51.932Z,7.70
2018-07-30T02:10:21.134Z,8.37
2018-07-30T02:12:51.943Z,8.00
2018-07-30T02:15:21.604Z,8.47
2018-07-30T02:17:52.158Z,8.47
2018-07-30T02:20:22.789Z,7.50
2018-07-30T02:22:52.118Z,7.73
2018-07-30T02:25:21.372Z,8.40
2018-07-30T02:27:50.839Z,8.30
2018-07-30T02:30:20.122Z,7.60
2018-07-30T02:32:49.432Z,7.30
2018-07-30T02:35:18.711Z,7.60
2018-07-30T02:37:49.446Z,8.20
2018-07-30T02:40:18.697Z,7.90
2018-07-30T02:42:48.386Z,8.60
2018-07-30T02:45:18.430Z,8.13
2018-07-30T02:47:47.778Z,8.70
2018-07-30T02:50:17.393Z,7.90
2018-07-30T03:10:51.505Z,8.87
2018-07-30T03:13:21.783Z,8.80
2018-07-30T03:15:51.769Z,9.03
2018-07-30T03:18:22.394Z,9.70
2018-07-30T03:20:51.644Z,9.63
2018-07-30T03:23:20.921Z,9.00
2018-07-30T03:25:50.418Z,9.10
2018-07-30T03:28:20.226Z,9.10
2018-07-30T03:30:49.524Z,9.50
2018-07-30T03:33:19.610Z,9.20
2018-07-30T03:35:49.328Z,9.40
2018-07-30T03:38:18.663Z,8.97
2018-07-30T03:40:47.958Z,9.40
2018-07-30T03:43:17.210Z,8.73
2018-07-30T03:45:46.988Z,8.50
2018-07-30T03:48:16.541Z,8.70
2018-07-30T03:50:45.761Z,9.40
2018-07-30T03:53:14.991Z,9.03
2018-07-30T03:55:44.354Z,8.87
2018-07-30T03:58:13.574Z,9.30
2018-07-30T04:00:42.817Z,9.10
2018-07-30T04:03:12.146Z,9.20
2018-07-30T04:05:41.411Z,9.00
2018-07-30T04:08:10.617Z,9.77
2018-07-30T04:10:39.898Z,9.67
2018-07-30T04:13:09.175Z,9.63
2018-07-30T04:33:42.169Z,8.90
2018-07-30T04:36:11.416Z,8.90
2018-07-30T04:38:40.825Z,10.07
2018-07-30T04:41:10.113Z,9.87
2018-07-30T05:01:44.527Z,10.60
2018-07-30T05:04:13.517Z,11.60
2018-07-30T05:06:42.753Z,10.17
2018-07-30T05:09:12.034Z,10.97
2018-07-30T05:29:44.434Z,13.03
2018-07-30T05:32:13.763Z,12.67
2018-07-30T05:34:43.104Z,12.23
2018-07-30T05:37:13.843Z,11.47
2018-07-30T05:39:43.091Z,11.33
2018-07-30T06:00:16.273Z,10.10
2018-07-30T06:02:45.618Z,10.53
2018-07-30T06:05:16.314Z,10.13
2018-07-30T06:07:45.813Z,10.23
2018-07-30T06:28:20.118Z,10.40
2018-07-30T06:30:49.633Z,10.70
2018-07-30T06:51:22.238Z,10.33
2018-07-30T07:11:49.535Z,10.43
2018-07-30T07:14:18.833Z,10.73
2018-07-30T07:16:48.103Z,10.37
2018-07-30T07:37:21.645Z,10.80
2018-07-30T07:39:51.187Z,11.17
2018-07-30T07:42:21.182Z,10.10
2018-07-30T07:44:51.612Z,10.97
2018-07-30T07:47:20.964Z,11.40
2018-07-30T07:49:51.429Z,11.07
2018-07-30T08:10:25.314Z,10.53
2018-07-30T08:12:54.554Z,9.90
2018-07-30T08:15:23.850Z,10.70
2018-07-30T08:17:54.508Z,10.63
2018-07-30T08:20:24.100Z,9.97
2018-07-30T08:22:54.582Z,9.97
2018-07-30T08:25:23.974Z,9.80
2018-07-30T08:27:53.206Z,9.90
2018-07-30T08:30:23.682Z,9.90
2018-07-30T08:32:53.819Z,9.70
2018-07-30T08:35:23.249Z,9.70
2018-07-30T08:37:52.501Z,9.67
2018-07-30T08:40:21.851Z,8.87
2018-07-30T08:42:52.288Z,9.77
2018-07-30T08:45:21.605Z,10.00
2018-07-30T09:05:55.588Z,8.07
2018-07-30T09:08:25.641Z,8.53
2018-07-30T09:10:55.126Z,8.73
2018-07-30T09:13:24.490Z,8.67
2018-07-30T09:15:54.404Z,8.27
2018-07-30T09:18:23.530Z,8.33
2018-07-30T09:20:53.896Z,8.00
2018-07-30T09:23:23.158Z,8.10
2018-07-30T09:25:52.627Z,7.57
2018-07-30T09:28:21.862Z,7.83
2018-07-30T09:30:51.330Z,8.37
2018-07-30T09:33:20.678Z,7.67
2018-07-30T09:35:50.912Z,8.10
2018-07-30T09:38:20.206Z,7.77
2018-07-30T09:40:49.453Z,7.67
2018-07-30T09:43:18.669Z,7.67
2018-07-30T09:45:48.125Z,8.00
2018-07-30T09:48:18.095Z,7.20
2018-07-30T09:50:47.619Z,7.60
2018-07-30T09:53:16.974Z,7.40
2018-07-30T09:55:47.495Z,7.63
2018-07-30T09:58:17.694Z,7.20
2018-07-30T10:00:52.402Z,7.83
2018-07-30T10:03:23.522Z,7.30
2018-07-30T10:05:53.017Z,7.30
2018-07-30T10:08:22.281Z,8.00
2018-07-30T10:10:51.979Z,7.40
2018-07-30T10:13:21.210Z,7.60
2018-07-30T10:15:52.139Z,7.20
2018-07-30T10:18:21.489Z,7.10
2018-07-30T10:20:50.656Z,7.57
2018-07-30T10:23:20.080Z,7.53
2018-07-30T10:25:49.456Z,6.87
2018-07-30T10:28:18.640Z,6.97
2018-07-30T10:30:47.988Z,6.53
2018-07-30T10:33:17.181Z,6.60
2018-07-30T10:35:46.431Z,7.07
2018-07-30T10:38:16.770Z,6.57
2018-07-30T10:40:46.538Z,6.60
2018-07-30T10:43:16.033Z,6.33
2018-07-30T10:45:45.327Z,7.40
2018-07-30T10:48:14.581Z,6.70
2018-07-30T10:50:44.766Z,7.47
2018-07-30T10:53:14.004Z,6.80
2018-07-30T11:13:48.205Z,7.10
2018-07-30T11:16:17.513Z,7.27
2018-07-30T11:18:47.548Z,6.70
2018-07-30T11:21:17.222Z,6.90
2018-07-30T11:41:52.789Z,6.97
2018-07-30T11:44:22.158Z,6.47
2018-07-30T11:46:52.062Z,6.23
2018-07-30T11:49:21.367Z,6.70
2018-07-30T11:51:52.002Z,6.60
2018-07-30T11:54:21.284Z,6.30
2018-07-30T11:56:51.043Z,5.97
2018-07-30T11:59:21.058Z,5.70
2018-07-30T12:01:50.334Z,6.10
2018-07-30T12:04:20.774Z,6.20
2018-07-30T12:06:50.777Z,6.43
2018-07-30T12:09:20.053Z,6.60
2018-07-30T12:11:49.217Z,6.37
2018-07-30T12:14:19.915Z,5.77
2018-07-30T12:16:49.127Z,5.70
2018-07-30T12:19:19.076Z,5.60
2018-07-30T12:21:48.762Z,5.57
2018-07-30T12:24:17.905Z,5.03
2018-07-30T12:26:47.290Z,5.87
2018-07-30T12:29:18.569Z,6.27
2018-07-30T12:31:47.831Z,6.13
2018-07-30T12:34:17.807Z,6.00
2018-07-30T12:54:52.036Z,5.20
2018-07-30T13:15:27.400Z,5.03
2018-07-30T13:17:57.277Z,5.13
2018-07-30T13:20:27.393Z,5.87
2018-07-30T13:22:56.815Z,5.50
2018-07-30T13:25:26.908Z,5.63
2018-07-30T13:46:06.790Z,5.53
2018-07-30T13:48:36.017Z,5.13
2018-07-30T13:51:06.221Z,5.20
2018-07-30T14:11:41.012Z,5.35
2018-07-30T14:14:11.175Z,5.12
2018-07-30T14:34:44.975Z,5.22
2018-07-30T14:55:18.337Z,4.80
2018-07-30T14:57:47.722Z,4.92
2018-07-30T15:00:16.978Z,5.17
2018-07-30T15:02:46.296Z,4.55
2018-07-30T15:23:19.552Z,5.33
2018-07-30T15:25:49.912Z,4.97
2018-07-30T15:28:19.210Z,4.72
2018-07-30T15:30:49.598Z,5.08
2018-07-30T15:33:19.356Z,4.70
2018-07-30T15:35:50.125Z,4.80
2018-07-30T15:38:19.510Z,4.53
2018-07-30T15:40:49.424Z,4.92
2018-07-30T15:43:18.913Z,4.50
2018-07-30T15:45:48.814Z,4.78
2018-07-30T16:06:22.529Z,5.10
2018-07-30T16:08:51.768Z,5.12
2018-07-30T16:11:21.065Z,4.62
2018-07-30T16:13:51.058Z,4.92
2018-07-30T16:16:21.577Z,5.00
2018-07-30T16:18:51.482Z,5.37
2018-07-30T16:21:20.790Z,5.05
2018-07-30T16:23:50.199Z,4.90
2018-07-30T16:26:19.746Z,5.03
2018-07-30T16:28:49.435Z,4.80
2018-07-30T16:31:19.053Z,5.53
2018-07-30T16:51:53.898Z,4.70
2018-07-30T17:12:28.642Z,4.80
2018-07-30T17:14:58.577Z,5.33
2018-07-30T17:17:28.742Z,4.50
2018-07-30T17:38:01.717Z,4.80
2018-07-30T17:58:36.354Z,4.37
2018-07-30T18:19:12.193Z,4.97
2018-07-30T18:39:45.994Z,5.73
2018-07-30T18:42:16.135Z,6.83
2018-07-30T19:02:50.006Z,5.67
2018-07-30T19:23:25.338Z,6.40
2018-07-30T19:25:55.588Z,7.23
2018-07-30T19:28:25.091Z,6.50
2018-07-30T19:48:58.568Z,7.03
2018-07-30T19:51:28.591Z,6.73
2018-07-30T19:53:57.910Z,7.70
2018-07-30T19:56:27.854Z,6.70
2018-07-30T20:17:00.848Z,7.03
2018-07-30T20:19:30.637Z,6.93
2018-07-30T20:22:00.696Z,7.70
2018-07-30T20:24:29.955Z,7.43
2018-07-30T20:26:59.204Z,7.17
2018-07-30T20:47:31.281Z,7.37
2018-07-30T20:50:00.802Z,7.33
2018-07-30T20:52:30.071Z,7.20
2018-07-30T20:54:59.306Z,8.23
2018-07-30T20:57:29.166Z,8.00
2018-07-30T20:59:58.509Z,7.17
2018-07-30T21:02:27.884Z,6.97
2018-07-30T21:04:57.320Z,7.67
2018-07-30T21:07:26.638Z,6.63
2018-07-30T21:09:55.892Z,7.43
2018-07-30T21:12:25.391Z,7.40
2018-07-30T21:14:54.633Z,7.73
2018-07-30T21:17:23.909Z,7.10
2018-07-30T21:19:53.486Z,7.20
2018-07-30T21:22:22.705Z,7.70
2018-07-30T21:24:52.940Z,7.43
2018-07-30T21:27:22.755Z,8.30
2018-07-30T21:29:52.403Z,7.27
2018-07-30T21:32:21.646Z,7.07
2018-07-30T21:34:50.997Z,7.57
2018-07-30T21:55:24.117Z,7.27
2018-07-30T21:57:53.753Z,7.87
2018-07-30T22:00:25.787Z,7.90
2018-07-30T22:02:56.360Z,8.40
2018-07-30T22:05:26.125Z,7.73
2018-07-30T22:07:55.426Z,8.13
2018-07-30T22:10:25.456Z,7.40
2018-07-30T22:12:55.596Z,8.93
2018-07-30T22:15:24.977Z,7.73
2018-07-30T22:17:54.498Z,7.77
2018-07-30T22:20:23.744Z,8.73
2018-07-30T22:22:52.991Z,8.60
2018-07-30T22:25:22.265Z,8.00
2018-07-30T22:27:52.318Z,8.47
2018-07-30T22:30:21.649Z,8.47
2018-07-30T22:32:51.147Z,8.83
2018-07-30T22:35:20.525Z,8.20
2018-07-30T22:37:51.191Z,8.80
2018-07-30T22:40:20.730Z,8.57
2018-07-30T22:42:51.001Z,8.73
2018-07-30T22:45:20.312Z,8.93
2018-07-30T22:47:50.290Z,7.93
2018-07-30T23:08:16.414Z,7.90
2018-07-30T23:10:45.900Z,8.00
2018-07-30T23:13:15.233Z,8.80
2018-07-30T23:15:44.389Z,7.67
2018-07-30T23:18:14.592Z,8.23
2018-07-30T23:20:44.234Z,8.17
2018-07-30T23:23:13.460Z,7.87
2018-07-30T23:25:42.653Z,9.07
2018-07-30T23:28:11.905Z,8.10
2018-07-30T23:30:41.262Z,9.40
2018-07-30T23:33:10.554Z,8.10
2018-07-30T23:35:39.797Z,9.03
2018-07-30T23:38:09.061Z,8.37
2018-07-30T23:40:38.468Z,8.47
2018-07-30T23:43:07.684Z,8.13
2018-07-30T23:45:36.893Z,8.50
2018-07-30T23:48:06.476Z,9.33
2018-07-30T23:50:36.666Z,9.03
2018-07-30T23:53:06.017Z,9.03
